sensor_id;sensor_type;location;lat;lon;timestamp;temperature;humidity
21849;DHT22;11089;49.852;19.700;2023-04-24T00:00:05;12.50;99.90
21849;DHT22;11089;49.852;19.700;2023-04-24T00:03:06;12.50;99.90
21849;DHT22;11089;49.852;19.700;2023-04-24T00:06:08;12.40;99.90
21849;DHT22;11089;49.852;19.700;2023-04-24T00:09:09;12.20;99.90
21849;DHT22;11089;49.852;19.700;2023-04-24T00:12:11;12.10;99.90
21849;DHT22;11089;49.852;19.700;2023-04-24T00:15:12;12.10;99.90
21849;DHT22;11089;49.852;19.700;2023-04-24T00:18:13;11.90;99.90
21849;DHT22;11089;49.852;19.700;2023-04-24T00:21:14;11.90;99.90
21849;DHT22;11089;49.852;19.700;2023-04-24T00:24:18;11.90;99.90
21849;DHT22;11089;49.852;19.700;2023-04-24T00:27:19;11.80;99.90
21849;DHT22;11089;49.852;19.700;2023-04-24T00:30:20;11.80;99.90
21849;DHT22;11089;49.852;19.700;2023-04-24T00:33:21;12.00;99.90
21849;DHT22;11089;49.852;19.700;2023-04-24T00:36:21;12.00;99.90
21849;DHT22;11089;49.852;19.700;2023-04-24T00:39:22;11.80;99.90
21849;DHT22;11089;49.852;19.700;2023-04-24T00:42:24;11.80;99.90
21849;DHT22;11089;49.852;19.700;2023-04-24T00:45:25;11.80;99.90
21849;DHT22;11089;49.852;19.700;2023-04-24T00:48:26;11.90;99.90
21849;DHT22;11089;49.852;19.700;2023-04-24T00:51:28;11.90;99.90
21849;DHT22;11089;49.852;19.700;2023-04-24T00:54:29;11.90;99.90
21849;DHT22;11089;49.852;19.700;2023-04-24T00:57:30;11.90;99.90
21849;DHT22;11089;49.852;19.700;2023-04-24T01:00:31;11.80;99.90
21849;DHT22;11089;49.852;19.700;2023-04-24T01:03:33;11.80;99.90
21849;DHT22;11089;49.852;19.700;2023-04-24T01:06:39;11.70;99.90
21849;DHT22;11089;49.852;19.700;2023-04-24T01:09:41;11.50;99.90
21849;DHT22;11089;49.852;19.700;2023-04-24T01:12:44;11.50;99.90
21849;DHT22;11089;49.852;19.700;2023-04-24T01:15:46;11.30;99.90
21849;DHT22;11089;49.852;19.700;2023-04-24T01:18:47;11.30;99.90
21849;DHT22;11089;49.852;19.700;2023-04-24T01:21:51;11.20;99.90
21849;DHT22;11089;49.852;19.700;2023-04-24T01:24:54;11.20;99.90
21849;DHT22;11089;49.852;19.700;2023-04-24T01:27:54;11.10;99.90
21849;DHT22;11089;49.852;19.700;2023-04-24T01:30:56;11.10;99.90
21849;DHT22;11089;49.852;19.700;2023-04-24T01:33:57;11.10;99.90
21849;DHT22;11089;49.852;19.700;2023-04-24T01:36:58;11.00;99.90
21849;DHT22;11089;49.852;19.700;2023-04-24T01:39:59;10.90;99.90
21849;DHT22;11089;49.852;19.700;2023-04-24T01:43:00;11.00;99.90
21849;DHT22;11089;49.852;19.700;2023-04-24T01:46:01;11.00;99.90
21849;DHT22;11089;49.852;19.700;2023-04-24T01:49:02;11.00;99.90
21849;DHT22;11089;49.852;19.700;2023-04-24T01:52:04;11.10;99.90
21849;DHT22;11089;49.852;19.700;2023-04-24T01:55:05;11.00;99.90
21849;DHT22;11089;49.852;19.700;2023-04-24T01:58:07;11.10;99.90
21849;DHT22;11089;49.852;19.700;2023-04-24T02:01:08;11.00;99.90
21849;DHT22;11089;49.852;19.700;2023-04-24T02:04:09;11.10;99.90
21849;DHT22;11089;49.852;19.700;2023-04-24T02:07:10;11.10;99.90
21849;DHT22;11089;49.852;19.700;2023-04-24T02:10:11;11.10;99.90
21849;DHT22;11089;49.852;19.700;2023-04-24T02:13:12;11.00;99.90
21849;DHT22;11089;49.852;19.700;2023-04-24T02:16:13;11.10;99.90
21849;DHT22;11089;49.852;19.700;2023-04-24T02:19:14;11.00;99.90
21849;DHT22;11089;49.852;19.700;2023-04-24T02:22:15;11.00;99.90
21849;DHT22;11089;49.852;19.700;2023-04-24T02:25:16;11.10;99.90
21849;DHT22;11089;49.852;19.700;2023-04-24T02:28:17;11.20;99.90
21849;DHT22;11089;49.852;19.700;2023-04-24T02:31:18;11.30;99.90
21849;DHT22;11089;49.852;19.700;2023-04-24T02:34:19;11.20;99.90
21849;DHT22;11089;49.852;19.700;2023-04-24T02:37:20;11.20;99.90
21849;DHT22;11089;49.852;19.700;2023-04-24T02:40:21;11.10;99.90
21849;DHT22;11089;49.852;19.700;2023-04-24T02:43:22;11.00;99.90
21849;DHT22;11089;49.852;19.700;2023-04-24T02:46:23;10.90;99.90
21849;DHT22;11089;49.852;19.700;2023-04-24T02:49:24;10.90;99.90
21849;DHT22;11089;49.852;19.700;2023-04-24T02:52:26;10.90;99.90
21849;DHT22;11089;49.852;19.700;2023-04-24T02:55:27;10.70;99.90
21849;DHT22;11089;49.852;19.700;2023-04-24T02:58:28;10.60;99.90
21849;DHT22;11089;49.852;19.700;2023-04-24T03:01:29;10.60;99.90
21849;DHT22;11089;49.852;19.700;2023-04-24T03:04:31;10.40;99.90
21849;DHT22;11089;49.852;19.700;2023-04-24T03:07:32;10.30;99.90
21849;DHT22;11089;49.852;19.700;2023-04-24T03:10:33;10.40;99.90
21849;DHT22;11089;49.852;19.700;2023-04-24T03:13:34;10.40;99.90
21849;DHT22;11089;49.852;19.700;2023-04-24T03:16:35;10.30;99.90
21849;DHT22;11089;49.852;19.700;2023-04-24T03:19:36;10.30;99.90
21849;DHT22;11089;49.852;19.700;2023-04-24T03:22:37;10.10;99.90
21849;DHT22;11089;49.852;19.700;2023-04-24T03:25:38;10.10;99.90
21849;DHT22;11089;49.852;19.700;2023-04-24T03:28:39;10.10;99.90
21849;DHT22;11089;49.852;19.700;2023-04-24T03:31:40;10.20;99.90
21849;DHT22;11089;49.852;19.700;2023-04-24T03:34:41;10.20;99.90
21849;DHT22;11089;49.852;19.700;2023-04-24T03:37:42;10.00;99.90
21849;DHT22;11089;49.852;19.700;2023-04-24T03:40:43;9.90;99.90
21849;DHT22;11089;49.852;19.700;2023-04-24T03:43:43;9.90;99.90
21849;DHT22;11089;49.852;19.700;2023-04-24T03:46:44;9.90;99.90
21849;DHT22;11089;49.852;19.700;2023-04-24T03:49:45;10.00;99.90
21849;DHT22;11089;49.852;19.700;2023-04-24T03:52:46;10.10;99.90
21849;DHT22;11089;49.852;19.700;2023-04-24T03:55:47;10.00;99.90
21849;DHT22;11089;49.852;19.700;2023-04-24T03:58:48;10.00;99.90
21849;DHT22;11089;49.852;19.700;2023-04-24T04:01:49;10.20;99.90
21849;DHT22;11089;49.852;19.700;2023-04-24T04:04:50;10.30;99.90
21849;DHT22;11089;49.852;19.700;2023-04-24T04:07:51;10.30;1.00
21849;DHT22;11089;49.852;19.700;2023-04-24T04:10:52;10.20;1.00
21849;DHT22;11089;49.852;19.700;2023-04-24T04:13:53;10.20;1.00
21849;DHT22;11089;49.852;19.700;2023-04-24T04:16:54;10.00;1.00
21849;DHT22;11089;49.852;19.700;2023-04-24T04:19:55;10.00;1.00
21849;DHT22;11089;49.852;19.700;2023-04-24T04:22:57;10.00;1.00
21849;DHT22;11089;49.852;19.700;2023-04-24T04:25:58;10.00;1.00
21849;DHT22;11089;49.852;19.700;2023-04-24T04:28:59;10.10;1.00
21849;DHT22;11089;49.852;19.700;2023-04-24T04:32:04;10.20;1.00
21849;DHT22;11089;49.852;19.700;2023-04-24T04:35:05;10.30;1.00
21849;DHT22;11089;49.852;19.700;2023-04-24T04:38:06;10.30;1.00
21849;DHT22;11089;49.852;19.700;2023-04-24T04:41:08;10.40;1.00
21849;DHT22;11089;49.852;19.700;2023-04-24T04:44:10;10.50;1.00
21849;DHT22;11089;49.852;19.700;2023-04-24T04:47:11;10.60;1.00
21849;DHT22;11089;49.852;19.700;2023-04-24T04:50:12;10.60;1.00
21849;DHT22;11089;49.852;19.700;2023-04-24T04:53:13;10.70;1.00
21849;DHT22;11089;49.852;19.700;2023-04-24T04:56:14;10.80;1.00
21849;DHT22;11089;49.852;19.700;2023-04-24T04:59:15;10.80;1.00
21849;DHT22;11089;49.852;19.700;2023-04-24T05:02:16;10.90;1.00
21849;DHT22;11089;49.852;19.700;2023-04-24T05:05:17;11.00;1.00
21849;DHT22;11089;49.852;19.700;2023-04-24T05:08:18;11.10;1.00
21849;DHT22;11089;49.852;19.700;2023-04-24T05:11:19;11.10;1.00
21849;DHT22;11089;49.852;19.700;2023-04-24T05:14:20;11.10;1.00
21849;DHT22;11089;49.852;19.700;2023-04-24T05:17:21;11.20;1.00
21849;DHT22;11089;49.852;19.700;2023-04-24T05:20:22;11.20;1.00
21849;DHT22;11089;49.852;19.700;2023-04-24T05:23:23;11.30;1.00
21849;DHT22;11089;49.852;19.700;2023-04-24T05:26:24;11.40;1.00
21849;DHT22;11089;49.852;19.700;2023-04-24T05:29:25;11.50;1.00
21849;DHT22;11089;49.852;19.700;2023-04-24T05:32:27;11.40;1.00
21849;DHT22;11089;49.852;19.700;2023-04-24T05:35:27;11.40;1.00
21849;DHT22;11089;49.852;19.700;2023-04-24T05:38:28;11.50;1.00
21849;DHT22;11089;49.852;19.700;2023-04-24T05:41:29;11.60;1.00
21849;DHT22;11089;49.852;19.700;2023-04-24T05:44:31;11.60;1.00
21849;DHT22;11089;49.852;19.700;2023-04-24T05:47:31;11.70;1.00
21849;DHT22;11089;49.852;19.700;2023-04-24T05:50:32;11.90;1.00
21849;DHT22;11089;49.852;19.700;2023-04-24T05:53:33;12.00;1.00
21849;DHT22;11089;49.852;19.700;2023-04-24T05:56:34;12.10;1.00
21849;DHT22;11089;49.852;19.700;2023-04-24T05:59:37;12.20;1.00
21849;DHT22;11089;49.852;19.700;2023-04-24T06:02:41;12.30;1.00
21849;DHT22;11089;49.852;19.700;2023-04-24T06:05:42;12.40;1.00
21849;DHT22;11089;49.852;19.700;2023-04-24T06:08:43;12.50;1.00
21849;DHT22;11089;49.852;19.700;2023-04-24T06:11:44;12.60;1.00
21849;DHT22;11089;49.852;19.700;2023-04-24T06:14:46;12.70;1.00
21849;DHT22;11089;49.852;19.700;2023-04-24T06:17:47;12.80;1.00
21849;DHT22;11089;49.852;19.700;2023-04-24T06:20:48;12.90;1.00
21849;DHT22;11089;49.852;19.700;2023-04-24T06:23:50;13.00;1.00
21849;DHT22;11089;49.852;19.700;2023-04-24T06:26:51;13.30;7.30
21849;DHT22;11089;49.852;19.700;2023-04-24T06:29:52;13.40;1.00
21849;DHT22;11089;49.852;19.700;2023-04-24T06:32:55;13.60;1.00
21849;DHT22;11089;49.852;19.700;2023-04-24T06:35:56;13.70;1.00
21849;DHT22;11089;49.852;19.700;2023-04-24T06:38:57;13.90;1.00
21849;DHT22;11089;49.852;19.700;2023-04-24T06:41:58;14.10;1.00
21849;DHT22;11089;49.852;19.700;2023-04-24T06:44:59;14.20;1.00
21849;DHT22;11089;49.852;19.700;2023-04-24T06:48:00;14.20;1.00
21849;DHT22;11089;49.852;19.700;2023-04-24T06:51:01;14.50;1.00
21849;DHT22;11089;49.852;19.700;2023-04-24T06:54:02;14.70;1.00
21849;DHT22;11089;49.852;19.700;2023-04-24T06:57:03;14.90;1.00
21849;DHT22;11089;49.852;19.700;2023-04-24T07:00:05;15.10;1.00
21849;DHT22;11089;49.852;19.700;2023-04-24T07:03:07;15.10;1.00
21849;DHT22;11089;49.852;19.700;2023-04-24T07:06:09;15.00;1.00
21849;DHT22;11089;49.852;19.700;2023-04-24T07:09:13;15.00;1.00
21849;DHT22;11089;49.852;19.700;2023-04-24T07:12:14;15.30;1.00
21849;DHT22;11089;49.852;19.700;2023-04-24T07:15:17;15.50;1.00
21849;DHT22;11089;49.852;19.700;2023-04-24T07:18:18;15.60;1.00
21849;DHT22;11089;49.852;19.700;2023-04-24T07:21:19;15.90;1.00
21849;DHT22;11089;49.852;19.700;2023-04-24T07:24:20;16.20;1.00
21849;DHT22;11089;49.852;19.700;2023-04-24T07:27:21;16.40;1.00
21849;DHT22;11089;49.852;19.700;2023-04-24T07:30:22;16.40;1.00
21849;DHT22;11089;49.852;19.700;2023-04-24T07:33:23;16.60;1.00
21849;DHT22;11089;49.852;19.700;2023-04-24T07:36:24;16.90;1.00
21849;DHT22;11089;49.852;19.700;2023-04-24T07:39:26;17.10;1.00
21849;DHT22;11089;49.852;19.700;2023-04-24T07:42:28;17.40;1.00
21849;DHT22;11089;49.852;19.700;2023-04-24T07:45:31;17.70;1.00
21849;DHT22;11089;49.852;19.700;2023-04-24T07:48:34;18.10;99.90
21849;DHT22;11089;49.852;19.700;2023-04-24T07:51:35;18.20;99.90
21849;DHT22;11089;49.852;19.700;2023-04-24T07:54:38;18.40;99.90
21849;DHT22;11089;49.852;19.700;2023-04-24T07:57:39;18.40;99.90
21849;DHT22;11089;49.852;19.700;2023-04-24T08:00:40;18.60;99.90
21849;DHT22;11089;49.852;19.700;2023-04-24T08:03:41;18.60;99.90
21849;DHT22;11089;49.852;19.700;2023-04-24T08:06:42;18.70;99.90
21849;DHT22;11089;49.852;19.700;2023-04-24T08:09:43;18.90;99.90
21849;DHT22;11089;49.852;19.700;2023-04-24T08:12:44;19.00;99.90
21849;DHT22;11089;49.852;19.700;2023-04-24T08:15:45;19.00;99.90
21849;DHT22;11089;49.852;19.700;2023-04-24T08:18:46;19.10;99.90
21849;DHT22;11089;49.852;19.700;2023-04-24T08:21:47;19.40;99.90
21849;DHT22;11089;49.852;19.700;2023-04-24T08:24:48;19.60;99.90
21849;DHT22;11089;49.852;19.700;2023-04-24T08:27:50;19.60;99.90
21849;DHT22;11089;49.852;19.700;2023-04-24T08:30:51;19.70;99.90
21849;DHT22;11089;49.852;19.700;2023-04-24T08:33:55;19.90;99.90
21849;DHT22;11089;49.852;19.700;2023-04-24T08:36:56;20.10;99.90
21849;DHT22;11089;49.852;19.700;2023-04-24T08:39:57;20.30;99.90
21849;DHT22;11089;49.852;19.700;2023-04-24T08:42:59;20.50;99.90
21849;DHT22;11089;49.852;19.700;2023-04-24T08:46:00;20.70;99.90
21849;DHT22;11089;49.852;19.700;2023-04-24T08:49:02;20.90;99.90
21849;DHT22;11089;49.852;19.700;2023-04-24T08:52:04;21.10;99.90
21849;DHT22;11089;49.852;19.700;2023-04-24T08:55:06;21.60;99.90
21849;DHT22;11089;49.852;19.700;2023-04-24T08:58:07;21.90;99.90
21849;DHT22;11089;49.852;19.700;2023-04-24T09:01:09;22.20;99.90
21849;DHT22;11089;49.852;19.700;2023-04-24T09:04:10;22.40;99.90
21849;DHT22;11089;49.852;19.700;2023-04-24T09:07:13;22.50;99.90
21849;DHT22;11089;49.852;19.700;2023-04-24T09:10:15;22.30;99.90
21849;DHT22;11089;49.852;19.700;2023-04-24T09:13:16;22.20;99.90
21849;DHT22;11089;49.852;19.700;2023-04-24T09:16:19;22.30;99.90
21849;DHT22;11089;49.852;19.700;2023-04-24T09:19:21;22.40;99.90
21849;DHT22;11089;49.852;19.700;2023-04-24T09:22:23;22.70;99.90
21849;DHT22;11089;49.852;19.700;2023-04-24T09:25:34;22.90;99.90
21849;DHT22;11089;49.852;19.700;2023-04-24T09:28:40;23.20;99.90
21849;DHT22;11089;49.852;19.700;2023-04-24T09:31:41;23.40;99.90
21849;DHT22;11089;49.852;19.700;2023-04-24T09:34:42;23.80;99.90
21849;DHT22;11089;49.852;19.700;2023-04-24T09:37:46;24.00;99.90
21849;DHT22;11089;49.852;19.700;2023-04-24T09:40:47;23.90;99.90
21849;DHT22;11089;49.852;19.700;2023-04-24T09:43:48;23.70;99.90
21849;DHT22;11089;49.852;19.700;2023-04-24T09:46:57;24.00;99.90
21849;DHT22;11089;49.852;19.700;2023-04-24T09:49:58;23.90;99.90
21849;DHT22;11089;49.852;19.700;2023-04-24T09:53:02;23.30;99.90
21849;DHT22;11089;49.852;19.700;2023-04-24T09:56:08;22.60;99.90
21849;DHT22;11089;49.852;19.700;2023-04-24T09:59:10;23.20;99.90
21849;DHT22;11089;49.852;19.700;2023-04-24T10:02:20;23.70;99.90
21849;DHT22;11089;49.852;19.700;2023-04-24T10:05:26;24.10;99.90
21849;DHT22;11089;49.852;19.700;2023-04-24T10:08:34;23.80;99.90
21849;DHT22;11089;49.852;19.700;2023-04-24T10:11:36;23.20;99.90
21849;DHT22;11089;49.852;19.700;2023-04-24T10:14:37;23.60;99.90
21849;DHT22;11089;49.852;19.700;2023-04-24T10:17:39;24.00;99.90
21849;DHT22;11089;49.852;19.700;2023-04-24T10:20:41;24.00;99.90
21849;DHT22;11089;49.852;19.700;2023-04-24T10:23:42;24.10;99.90
21849;DHT22;11089;49.852;19.700;2023-04-24T10:26:45;24.10;99.90
21849;DHT22;11089;49.852;19.700;2023-04-24T10:29:47;24.50;99.90
21849;DHT22;11089;49.852;19.700;2023-04-24T10:32:50;24.90;99.90
21849;DHT22;11089;49.852;19.700;2023-04-24T10:35:51;24.40;99.90
21849;DHT22;11089;49.852;19.700;2023-04-24T10:38:54;23.90;99.90
21849;DHT22;11089;49.852;19.700;2023-04-24T10:41:57;24.40;99.90
21849;DHT22;11089;49.852;19.700;2023-04-24T10:44:58;25.20;99.90
21849;DHT22;11089;49.852;19.700;2023-04-24T10:48:02;25.70;99.90
21849;DHT22;11089;49.852;19.700;2023-04-24T10:51:03;26.20;99.90
21849;DHT22;11089;49.852;19.700;2023-04-24T10:54:26;26.90;99.90
21849;DHT22;11089;49.852;19.700;2023-04-24T10:57:28;26.50;99.90
21849;DHT22;11089;49.852;19.700;2023-04-24T11:00:31;26.20;99.90
21849;DHT22;11089;49.852;19.700;2023-04-24T11:03:33;25.30;99.90
21849;DHT22;11089;49.852;19.700;2023-04-24T11:06:36;24.40;99.90
21849;DHT22;11089;49.852;19.700;2023-04-24T11:09:37;24.40;99.90
21849;DHT22;11089;49.852;19.700;2023-04-24T11:12:41;24.00;99.90
21849;DHT22;11089;49.852;19.700;2023-04-24T11:15:42;24.30;99.90
21849;DHT22;11089;49.852;19.700;2023-04-24T11:18:43;24.50;99.90
21849;DHT22;11089;49.852;19.700;2023-04-24T11:21:55;24.30;99.90
21849;DHT22;11089;49.852;19.700;2023-04-24T11:24:59;24.40;99.90
21849;DHT22;11089;49.852;19.700;2023-04-24T11:28:04;24.30;99.90
21849;DHT22;11089;49.852;19.700;2023-04-24T11:34:34;23.90;99.90
21849;DHT22;11089;49.852;19.700;2023-04-24T11:37:39;23.70;99.90
21849;DHT22;11089;49.852;19.700;2023-04-24T11:40:40;23.40;99.90
21849;DHT22;11089;49.852;19.700;2023-04-24T11:43:41;23.20;99.90
21849;DHT22;11089;49.852;19.700;2023-04-24T11:46:42;22.90;99.90
21849;DHT22;11089;49.852;19.700;2023-04-24T11:49:43;22.60;99.90
21849;DHT22;11089;49.852;19.700;2023-04-24T11:52:46;22.30;99.90
21849;DHT22;11089;49.852;19.700;2023-04-24T11:55:48;22.00;99.90
21849;DHT22;11089;49.852;19.700;2023-04-24T11:58:52;21.70;99.90
21849;DHT22;11089;49.852;19.700;2023-04-24T12:01:54;21.80;99.90
21849;DHT22;11089;49.852;19.700;2023-04-24T12:04:55;21.50;99.90
21849;DHT22;11089;49.852;19.700;2023-04-24T12:07:56;21.30;99.90
21849;DHT22;11089;49.852;19.700;2023-04-24T12:10:57;21.20;99.90
21849;DHT22;11089;49.852;19.700;2023-04-24T12:14:10;21.10;99.90
21849;DHT22;11089;49.852;19.700;2023-04-24T12:17:11;21.20;99.90
21849;DHT22;11089;49.852;19.700;2023-04-24T12:20:13;21.10;99.90
21849;DHT22;11089;49.852;19.700;2023-04-24T12:23:14;20.90;99.90
21849;DHT22;11089;49.852;19.700;2023-04-24T12:26:19;20.70;99.90
21849;DHT22;11089;49.852;19.700;2023-04-24T12:29:21;20.70;99.90
21849;DHT22;11089;49.852;19.700;2023-04-24T12:32:22;20.60;99.90
21849;DHT22;11089;49.852;19.700;2023-04-24T12:35:26;20.70;99.90
21849;DHT22;11089;49.852;19.700;2023-04-24T12:38:28;20.40;99.90
21849;DHT22;11089;49.852;19.700;2023-04-24T12:41:50;19.80;99.90
21849;DHT22;11089;49.852;19.700;2023-04-24T12:44:59;19.20;99.90
21849;DHT22;11089;49.852;19.700;2023-04-24T12:48:01;19.10;99.90
21849;DHT22;11089;49.852;19.700;2023-04-24T12:51:02;19.10;99.90
21849;DHT22;11089;49.852;19.700;2023-04-24T12:54:03;18.70;99.90
21849;DHT22;11089;49.852;19.700;2023-04-24T12:57:04;18.60;99.90
21849;DHT22;11089;49.852;19.700;2023-04-24T13:00:06;18.70;99.90
21849;DHT22;11089;49.852;19.700;2023-04-24T13:03:08;18.30;99.90
21849;DHT22;11089;49.852;19.700;2023-04-24T13:06:09;18.40;99.90
21849;DHT22;11089;49.852;19.700;2023-04-24T13:09:10;18.30;99.90
21849;DHT22;11089;49.852;19.700;2023-04-24T13:12:11;18.30;99.90
21849;DHT22;11089;49.852;19.700;2023-04-24T13:15:12;18.10;99.90
21849;DHT22;11089;49.852;19.700;2023-04-24T13:18:14;17.90;99.90
21849;DHT22;11089;49.852;19.700;2023-04-24T13:21:15;18.00;99.90
21849;DHT22;11089;49.852;19.700;2023-04-24T13:24:16;17.80;99.90
21849;DHT22;11089;49.852;19.700;2023-04-24T13:27:18;17.90;99.90
21849;DHT22;11089;49.852;19.700;2023-04-24T13:30:19;17.70;99.90
21849;DHT22;11089;49.852;19.700;2023-04-24T13:33:20;17.90;99.90
21849;DHT22;11089;49.852;19.700;2023-04-24T13:36:21;17.80;99.90
21849;DHT22;11089;49.852;19.700;2023-04-24T13:39:23;17.50;99.90
21849;DHT22;11089;49.852;19.700;2023-04-24T13:42:24;17.50;99.90
21849;DHT22;11089;49.852;19.700;2023-04-24T13:45:25;17.70;99.90
21849;DHT22;11089;49.852;19.700;2023-04-24T13:48:26;17.70;99.90
21849;DHT22;11089;49.852;19.700;2023-04-24T13:51:27;17.50;99.90
21849;DHT22;11089;49.852;19.700;2023-04-24T13:54:28;17.50;99.90
21849;DHT22;11089;49.852;19.700;2023-04-24T13:57:29;17.40;99.90
21849;DHT22;11089;49.852;19.700;2023-04-24T14:00:31;17.50;99.90
21849;DHT22;11089;49.852;19.700;2023-04-24T14:03:33;17.70;99.90
21849;DHT22;11089;49.852;19.700;2023-04-24T14:06:34;17.70;99.90
21849;DHT22;11089;49.852;19.700;2023-04-24T14:09:35;17.50;99.90
21849;DHT22;11089;49.852;19.700;2023-04-24T14:12:36;17.50;99.90
21849;DHT22;11089;49.852;19.700;2023-04-24T14:15:37;17.50;99.90
21849;DHT22;11089;49.852;19.700;2023-04-24T14:18:38;17.40;99.90
21849;DHT22;11089;49.852;19.700;2023-04-24T14:21:39;17.40;99.90
21849;DHT22;11089;49.852;19.700;2023-04-24T14:24:40;17.30;99.90
21849;DHT22;11089;49.852;19.700;2023-04-24T14:27:41;17.10;99.90
21849;DHT22;11089;49.852;19.700;2023-04-24T14:30:42;17.10;99.90
21849;DHT22;11089;49.852;19.700;2023-04-24T14:33:43;17.00;99.90
21849;DHT22;11089;49.852;19.700;2023-04-24T14:36:46;17.10;99.90
21849;DHT22;11089;49.852;19.700;2023-04-24T14:39:47;17.00;99.90
21849;DHT22;11089;49.852;19.700;2023-04-24T14:42:48;17.00;99.90
21849;DHT22;11089;49.852;19.700;2023-04-24T14:45:49;17.00;99.90
21849;DHT22;11089;49.852;19.700;2023-04-24T14:48:50;17.10;99.90
21849;DHT22;11089;49.852;19.700;2023-04-24T14:51:51;17.20;99.90
21849;DHT22;11089;49.852;19.700;2023-04-24T14:54:52;17.10;99.90
21849;DHT22;11089;49.852;19.700;2023-04-24T14:57:53;17.10;99.90
21849;DHT22;11089;49.852;19.700;2023-04-24T15:00:54;16.90;99.90
21849;DHT22;11089;49.852;19.700;2023-04-24T15:03:55;17.00;99.90
21849;DHT22;11089;49.852;19.700;2023-04-24T15:06:56;17.00;99.90
21849;DHT22;11089;49.852;19.700;2023-04-24T15:09:57;16.90;99.90
21849;DHT22;11089;49.852;19.700;2023-04-24T15:12:58;16.80;99.90
21849;DHT22;11089;49.852;19.700;2023-04-24T15:15:59;16.80;99.90
21849;DHT22;11089;49.852;19.700;2023-04-24T15:19:00;16.80;99.90
21849;DHT22;11089;49.852;19.700;2023-04-24T15:22:01;16.70;99.90
21849;DHT22;11089;49.852;19.700;2023-04-24T15:25:02;16.50;99.90
21849;DHT22;11089;49.852;19.700;2023-04-24T15:28:04;16.40;99.90
21849;DHT22;11089;49.852;19.700;2023-04-24T15:31:05;16.30;99.90
21849;DHT22;11089;49.852;19.700;2023-04-24T15:34:06;16.40;99.90
21849;DHT22;11089;49.852;19.700;2023-04-24T15:37:07;16.40;99.90
21849;DHT22;11089;49.852;19.700;2023-04-24T15:40:09;16.30;99.90
21849;DHT22;11089;49.852;19.700;2023-04-24T15:43:11;16.30;99.90
21849;DHT22;11089;49.852;19.700;2023-04-24T15:46:12;16.10;99.90
21849;DHT22;11089;49.852;19.700;2023-04-24T15:49:13;16.20;1.00
21849;DHT22;11089;49.852;19.700;2023-04-24T15:52:14;16.20;1.00
21849;DHT22;11089;49.852;19.700;2023-04-24T15:55:15;16.00;1.00
21849;DHT22;11089;49.852;19.700;2023-04-24T15:58:17;15.80;1.00
21849;DHT22;11089;49.852;19.700;2023-04-24T16:01:18;15.90;1.00
21849;DHT22;11089;49.852;19.700;2023-04-24T16:04:20;15.90;1.00
21849;DHT22;11089;49.852;19.700;2023-04-24T16:07:21;15.90;1.00
21849;DHT22;11089;49.852;19.700;2023-04-24T16:10:22;15.80;1.00
21849;DHT22;11089;49.852;19.700;2023-04-24T16:13:23;15.70;1.00
21849;DHT22;11089;49.852;19.700;2023-04-24T16:16:24;15.70;1.00
21849;DHT22;11089;49.852;19.700;2023-04-24T16:19:25;15.60;1.00
21849;DHT22;11089;49.852;19.700;2023-04-24T16:22:25;15.60;1.00
21849;DHT22;11089;49.852;19.700;2023-04-24T16:25:27;15.50;1.00
21849;DHT22;11089;49.852;19.700;2023-04-24T16:28:29;15.30;1.00
21849;DHT22;11089;49.852;19.700;2023-04-24T16:31:30;15.30;1.00
21849;DHT22;11089;49.852;19.700;2023-04-24T16:34:31;15.20;1.00
21849;DHT22;11089;49.852;19.700;2023-04-24T16:37:32;15.20;1.00
21849;DHT22;11089;49.852;19.700;2023-04-24T16:40:33;15.30;1.00
21849;DHT22;11089;49.852;19.700;2023-04-24T16:43:34;15.30;1.00
21849;DHT22;11089;49.852;19.700;2023-04-24T16:46:40;15.20;1.00
21849;DHT22;11089;49.852;19.700;2023-04-24T16:49:41;15.00;1.00
21849;DHT22;11089;49.852;19.700;2023-04-24T16:52:42;14.90;1.00
21849;DHT22;11089;49.852;19.700;2023-04-24T16:55:43;14.80;1.00
21849;DHT22;11089;49.852;19.700;2023-04-24T16:58:44;14.90;1.00
21849;DHT22;11089;49.852;19.700;2023-04-24T17:01:45;14.90;1.00
21849;DHT22;11089;49.852;19.700;2023-04-24T17:04:47;14.90;1.00
21849;DHT22;11089;49.852;19.700;2023-04-24T17:07:49;14.70;1.00
21849;DHT22;11089;49.852;19.700;2023-04-24T17:10:50;14.70;8.60
21849;DHT22;11089;49.852;19.700;2023-04-24T17:13:51;14.80;1.00
21849;DHT22;11089;49.852;19.700;2023-04-24T17:16:52;14.70;15.70
21849;DHT22;11089;49.852;19.700;2023-04-24T17:19:53;14.70;66.90
21849;DHT22;11089;49.852;19.700;2023-04-24T17:22:54;14.50;99.90
21849;DHT22;11089;49.852;19.700;2023-04-24T17:25:55;14.40;99.90
21849;DHT22;11089;49.852;19.700;2023-04-24T17:28:56;14.40;99.90
21849;DHT22;11089;49.852;19.700;2023-04-24T17:31:57;14.30;99.90
21849;DHT22;11089;49.852;19.700;2023-04-24T17:34:58;14.40;99.90
21849;DHT22;11089;49.852;19.700;2023-04-24T17:37:59;14.40;99.90
21849;DHT22;11089;49.852;19.700;2023-04-24T17:41:00;14.20;99.90
21849;DHT22;11089;49.852;19.700;2023-04-24T17:44:01;14.20;99.90
21849;DHT22;11089;49.852;19.700;2023-04-24T17:47:02;14.00;99.90
21849;DHT22;11089;49.852;19.700;2023-04-24T17:50:04;14.10;99.90
21849;DHT22;11089;49.852;19.700;2023-04-24T17:53:06;14.10;1.00
21849;DHT22;11089;49.852;19.700;2023-04-24T17:56:07;13.90;1.00
21849;DHT22;11089;49.852;19.700;2023-04-24T17:59:08;14.00;99.90
21849;DHT22;11089;49.852;19.700;2023-04-24T18:02:09;14.10;99.90
21849;DHT22;11089;49.852;19.700;2023-04-24T18:05:10;13.90;1.00
21849;DHT22;11089;49.852;19.700;2023-04-24T18:08:11;13.80;1.00
21849;DHT22;11089;49.852;19.700;2023-04-24T18:11:12;13.50;9.30
21849;DHT22;11089;49.852;19.700;2023-04-24T18:14:13;13.30;99.90
21849;DHT22;11089;49.852;19.700;2023-04-24T18:17:14;13.40;99.90
21849;DHT22;11089;49.852;19.700;2023-04-24T18:20:16;13.50;1.00
21849;DHT22;11089;49.852;19.700;2023-04-24T18:23:18;13.50;1.00
21849;DHT22;11089;49.852;19.700;2023-04-24T18:26:19;13.30;99.90
21849;DHT22;11089;49.852;19.700;2023-04-24T18:29:20;13.30;1.00
21849;DHT22;11089;49.852;19.700;2023-04-24T18:32:21;13.20;1.00
21849;DHT22;11089;49.852;19.700;2023-04-24T18:35:22;13.40;99.90
21849;DHT22;11089;49.852;19.700;2023-04-24T18:38:23;13.50;99.90
21849;DHT22;11089;49.852;19.700;2023-04-24T18:41:25;13.30;1.00
21849;DHT22;11089;49.852;19.700;2023-04-24T18:44:26;13.10;99.90
21849;DHT22;11089;49.852;19.700;2023-04-24T18:47:27;13.10;99.90
21849;DHT22;11089;49.852;19.700;2023-04-24T18:50:28;13.10;99.90
21849;DHT22;11089;49.852;19.700;2023-04-24T18:53:31;13.00;99.90
21849;DHT22;11089;49.852;19.700;2023-04-24T18:56:32;13.00;99.90